createdAt,value
2022-11-30T00:05:05.243Z,99933.30
2022-11-30T00:10:12.366Z,99934.36
2022-11-30T00:15:27.742Z,99937.48
2022-11-30T00:26:05.296Z,99945.88
2022-11-30T00:31:14.920Z,99949.66
2022-11-30T00:36:22.954Z,99951.74
2022-11-30T00:41:43.285Z,99951.61
2022-11-30T00:46:47.542Z,99958.38
2022-11-30T00:52:09.164Z,99953.71
2022-11-30T00:57:40.531Z,99949.69
2022-11-30T01:02:48.088Z,99948.40
2022-11-30T01:07:51.774Z,99943.42
2022-11-30T01:18:36.684Z,99946.48
2022-11-30T01:36:46.540Z,99948.58
2022-11-30T01:42:11.155Z,99946.60
2022-11-30T01:48:03.307Z,99946.11
2022-11-30T01:53:27.010Z,99947.41
2022-11-30T01:58:52.064Z,99955.12
2022-11-30T02:04:40.200Z,99961.48
2022-11-30T02:10:07.361Z,99971.48
2022-11-30T02:15:22.897Z,99979.77
2022-11-30T02:20:43.974Z,99982.06
2022-11-30T02:26:09.409Z,99982.77
2022-11-30T02:31:18.951Z,99975.80
2022-11-30T02:36:24.354Z,99980.88
2022-11-30T02:41:27.447Z,99981.33
2022-11-30T02:46:40.186Z,99977.45
2022-11-30T02:51:53.318Z,99978.37
2022-11-30T02:56:59.613Z,99977.38
2022-11-30T03:02:03.844Z,99977.86
2022-11-30T03:07:11.223Z,99983.05
2022-11-30T03:12:37.558Z,99981.23
2022-11-30T03:17:46.574Z,99987.22
2022-11-30T03:22:59.593Z,99991.88
2022-11-30T03:28:09.390Z,99987.43
2022-11-30T03:33:16.124Z,99993.79
2022-11-30T03:38:20.160Z,99996.54
2022-11-30T03:43:25.753Z,99999.56
2022-11-30T03:48:36.824Z,100008.52
2022-11-30T03:54:15.973Z,100005.95
2022-11-30T03:59:40.339Z,100006.58
2022-11-30T04:04:44.128Z,100005.08
2022-11-30T04:20:45.645Z,100015.86
2022-11-30T04:26:02.985Z,100015.95
2022-11-30T04:31:11.093Z,100015.77
2022-11-30T04:36:25.615Z,100018.39
2022-11-30T04:41:41.501Z,100018.97
2022-11-30T04:46:46.237Z,100024.30
2022-11-30T04:51:59.084Z,100024.34
2022-11-30T04:57:07.602Z,100026.02
2022-11-30T05:02:14.622Z,100031.89
2022-11-30T05:07:22.690Z,100031.55
2022-11-30T05:12:29.635Z,100034.92
2022-11-30T05:17:35.199Z,100038.48
2022-11-30T05:22:42.912Z,100033.29
2022-11-30T05:27:47.288Z,100038.57
2022-11-30T05:32:57.052Z,100043.74
2022-11-30T05:38:01.837Z,100044.69
2022-11-30T05:43:12.852Z,100038.97
2022-11-30T05:48:28.420Z,100037.20
2022-11-30T05:54:31.283Z,100038.17
2022-11-30T05:59:23.104Z,100041.16
2022-11-30T06:05:17.906Z,100039.36
2022-11-30T06:10:33.155Z,100040.30
2022-11-30T06:15:41.690Z,100047.64
2022-11-30T06:20:49.616Z,100053.88
2022-11-30T06:25:53.580Z,100063.80
2022-11-30T06:31:02.376Z,100065.61
2022-11-30T06:36:35.789Z,100066.70
2022-11-30T06:41:41.030Z,100067.98
2022-11-30T06:46:49.603Z,100069.00
2022-11-30T06:52:03.904Z,100070.77
2022-11-30T06:57:12.556Z,100071.16
2022-11-30T07:02:18.808Z,100076.33
2022-11-30T07:13:05.810Z,100083.59
2022-11-30T07:18:14.082Z,100087.33
2022-11-30T07:23:40.556Z,100088.83
2022-11-30T07:28:51.787Z,100088.20
2022-11-30T07:34:25.128Z,100082.15
2022-11-30T07:39:30.046Z,100086.80
2022-11-30T07:45:00.939Z,100088.52
2022-11-30T07:50:16.121Z,100090.02
2022-11-30T08:01:22.866Z,100101.95
2022-11-30T08:06:46.197Z,100105.39
2022-11-30T08:12:03.496Z,100105.85
2022-11-30T08:22:47.458Z,100113.05
2022-11-30T08:28:07.131Z,100112.90
2022-11-30T08:33:34.504Z,100117.09
2022-11-30T08:38:59.196Z,100115.27
2022-11-30T08:49:51.520Z,100124.27
2022-11-30T08:55:29.775Z,100126.52
2022-11-30T09:06:19.825Z,100118.30
2022-11-30T09:11:32.289Z,100118.73
2022-11-30T09:17:34.641Z,100123.63
2022-11-30T09:35:13.082Z,100119.36
2022-11-30T09:41:18.366Z,100113.27
2022-11-30T09:47:13.397Z,100110.31
2022-11-30T09:53:05.310Z,100110.73
2022-11-30T09:58:47.635Z,100104.56
2022-11-30T10:03:58.724Z,100104.05
2022-11-30T10:09:23.844Z,100103.61
2022-11-30T10:20:55.159Z,100086.34
2022-11-30T10:26:34.433Z,100090.37
2022-11-30T10:31:51.762Z,100091.31
2022-11-30T10:37:33.872Z,100092.60
2022-11-30T10:54:49.158Z,100079.95
2022-11-30T11:00:49.259Z,100078.66
2022-11-30T11:05:49.534Z,100073.41
2022-11-30T11:11:00.058Z,100066.44
2022-11-30T11:16:09.902Z,100057.83
2022-11-30T11:21:55.180Z,100065.59
2022-11-30T11:27:26.338Z,100061.44
2022-11-30T11:39:01.232Z,100067.27
2022-11-30T11:44:25.325Z,100063.53
2022-11-30T11:49:38.865Z,100067.45
2022-11-30T11:55:21.389Z,100064.19
2022-11-30T12:00:36.819Z,100062.92
2022-11-30T12:05:54.846Z,100059.88
2022-11-30T12:11:56.948Z,100067.67
2022-11-30T12:17:27.630Z,100064.70
2022-11-30T12:30:07.615Z,100074.06
2022-11-30T12:36:12.066Z,100071.88
2022-11-30T12:42:06.564Z,100069.75
2022-11-30T12:47:39.785Z,100061.98
2022-11-30T12:53:16.068Z,100060.16
2022-11-30T12:59:21.230Z,100066.83
2022-11-30T13:10:59.815Z,100068.98
2022-11-30T13:23:30.125Z,100062.64
2022-11-30T13:28:40.856Z,100060.84
2022-11-30T13:33:53.491Z,100064.08
2022-11-30T13:39:29.766Z,100066.92
2022-11-30T13:44:36.491Z,100058.73
2022-11-30T13:50:04.314Z,100057.65
2022-11-30T13:55:50.853Z,100060.22
2022-11-30T14:01:02.217Z,100050.21
2022-11-30T14:06:39.087Z,100050.42
2022-11-30T14:11:44.881Z,100049.28
2022-11-30T14:16:48.832Z,100049.60
2022-11-30T14:21:52.484Z,100052.61
2022-11-30T14:26:55.928Z,100056.46
2022-11-30T14:32:07.660Z,100048.35
2022-11-30T14:37:22.060Z,100046.75
2022-11-30T14:42:25.053Z,100046.84
2022-11-30T14:47:28.163Z,100051.09
2022-11-30T14:52:52.367Z,100053.96
2022-11-30T14:58:21.679Z,100060.27
2022-11-30T15:03:34.610Z,100057.84
2022-11-30T15:08:48.374Z,100056.95
2022-11-30T15:14:07.354Z,100055.34
2022-11-30T15:19:36.590Z,100059.54
2022-11-30T15:24:39.566Z,100064.76
2022-11-30T15:29:58.619Z,100063.08
2022-11-30T15:35:02.265Z,100070.94
2022-11-30T15:40:09.020Z,100074.82
2022-11-30T15:45:31.978Z,100079.44
2022-11-30T15:50:38.009Z,100081.37
2022-11-30T15:55:44.440Z,100083.87
2022-11-30T16:01:00.253Z,100090.77
2022-11-30T16:06:07.909Z,100093.11
2022-11-30T16:11:11.162Z,100094.03
2022-11-30T16:16:21.276Z,100096.64
2022-11-30T16:21:24.353Z,100101.30
2022-11-30T16:31:51.009Z,100104.66
2022-11-30T16:36:54.131Z,100103.12
2022-11-30T16:42:04.868Z,100102.39
2022-11-30T16:47:12.159Z,100100.24
2022-11-30T16:52:20.817Z,100106.63
2022-11-30T16:57:32.867Z,100100.10
2022-11-30T17:02:49.089Z,100098.71
2022-11-30T17:07:59.939Z,100098.88
2022-11-30T17:18:49.136Z,100098.45
2022-11-30T17:24:09.833Z,100102.11
2022-11-30T17:29:41.458Z,100107.59
2022-11-30T17:34:48.173Z,100107.64
2022-11-30T17:39:51.472Z,100107.85
2022-11-30T17:44:54.477Z,100109.25
2022-11-30T17:49:57.708Z,100112.11
2022-11-30T17:55:00.655Z,100111.26
2022-11-30T18:00:05.933Z,100114.05
2022-11-30T18:05:09.480Z,100119.49
2022-11-30T18:10:14.198Z,100119.18
2022-11-30T18:15:18.072Z,100122.73
2022-11-30T18:20:22.941Z,100119.76
2022-11-30T18:25:28.496Z,100117.96
2022-11-30T18:30:32.288Z,100118.81
2022-11-30T18:35:50.644Z,100117.23
2022-11-30T18:41:08.309Z,100125.04
2022-11-30T18:46:15.864Z,100129.28
2022-11-30T18:51:27.011Z,100128.55
2022-11-30T18:56:53.728Z,100131.60
2022-11-30T19:01:57.637Z,100132.34
2022-11-30T19:07:00.753Z,100132.73
2022-11-30T19:12:04.363Z,100133.67
2022-11-30T19:17:07.533Z,100133.69
2022-11-30T19:22:11.046Z,100135.68
2022-11-30T19:27:14.747Z,100143.73
2022-11-30T19:32:18.458Z,100135.58
2022-11-30T19:37:22.279Z,100133.04
2022-11-30T19:42:25.993Z,100135.35
2022-11-30T19:47:33.938Z,100135.73
2022-11-30T19:52:40.872Z,100130.45
2022-11-30T19:58:04.044Z,100129.13
2022-11-30T20:03:11.342Z,100134.09
2022-11-30T20:08:17.202Z,100138.15
2022-11-30T20:13:22.261Z,100138.73
2022-11-30T20:18:32.658Z,100141.40
2022-11-30T20:23:37.791Z,100139.98
2022-11-30T20:28:52.101Z,100142.45
2022-11-30T20:33:55.808Z,100141.20
2022-11-30T20:45:43.803Z,100134.34
2022-11-30T20:51:14.077Z,100131.04
2022-11-30T21:10:52.592Z,100125.69
2022-11-30T21:16:12.159Z,100132.33
2022-11-30T21:22:27.759Z,100133.16
2022-11-30T21:27:11.724Z,100130.83
2022-11-30T21:32:36.499Z,100130.64
2022-11-30T21:37:44.004Z,100131.14
2022-11-30T21:42:47.465Z,100134.42
2022-11-30T21:47:50.433Z,100132.88
2022-11-30T21:52:53.543Z,100127.30
2022-11-30T21:57:56.579Z,100124.56
2022-11-30T22:02:59.695Z,100124.28
2022-11-30T22:08:03.386Z,100118.21
2022-11-30T22:13:06.390Z,100120.51
2022-11-30T22:18:10.513Z,100112.98
2022-11-30T22:23:24.407Z,100115.77
2022-11-30T22:28:35.503Z,100114.20
2022-11-30T22:33:51.905Z,100110.51
2022-11-30T22:39:21.108Z,100111.87
2022-11-30T22:44:31.368Z,100109.63
2022-11-30T22:49:43.487Z,100110.04
2022-11-30T22:55:07.850Z,100109.98
2022-11-30T23:01:18.741Z,100112.44
2022-11-30T23:06:25.980Z,100112.81
2022-11-30T23:11:39.999Z,100107.94
2022-11-30T23:16:43.745Z,100107.79
2022-11-30T23:21:51.249Z,100103.96
2022-11-30T23:27:02.849Z,100099.77
2022-11-30T23:32:09.921Z,100096.41
2022-11-30T23:37:23.288Z,100086.92
2022-11-30T23:42:30.288Z,100084.13
2022-11-30T23:47:38.144Z,100081.18
2022-11-30T23:53:13.383Z,100080.83
2022-11-30T23:58:24.667Z,100079.45
